sensor_id;sensor_type;location;lat;lon;timestamp;temperature;humidity
66312;HTU21D;53114;51.138;6.008;2023-07-20T00:01:48;19.47;102.14
66312;HTU21D;53114;51.138;6.008;2023-07-20T00:04:14;19.51;102.98
66312;HTU21D;53114;51.138;6.008;2023-07-20T00:06:40;19.53;103.12
66312;HTU21D;53114;51.138;6.008;2023-07-20T00:09:06;19.56;102.19
66312;HTU21D;53114;51.138;6.008;2023-07-20T00:11:36;19.54;101.52
66312;HTU21D;53114;51.138;6.008;2023-07-20T00:14:03;19.54;101.28
66312;HTU21D;53114;51.138;6.008;2023-07-20T00:16:29;19.52;101.56
66312;HTU21D;53114;51.138;6.008;2023-07-20T00:18:55;19.53;102.04
66312;HTU21D;53114;51.138;6.008;2023-07-20T00:21:21;19.51;102.63
66312;HTU21D;53114;51.138;6.008;2023-07-20T00:23:47;19.50;103.34
66312;HTU21D;53114;51.138;6.008;2023-07-20T00:26:13;19.42;104.18
66312;HTU21D;53114;51.138;6.008;2023-07-20T00:28:39;19.39;105.01
66312;HTU21D;53114;51.138;6.008;2023-07-20T00:31:05;19.35;105.41
66312;HTU21D;53114;51.138;6.008;2023-07-20T00:33:31;19.22;105.83
66312;HTU21D;53114;51.138;6.008;2023-07-20T00:35:58;19.14;106.72
66312;HTU21D;53114;51.138;6.008;2023-07-20T00:38:24;19.10;107.50
66312;HTU21D;53114;51.138;6.008;2023-07-20T00:40:51;19.09;108.11
66312;HTU21D;53114;51.138;6.008;2023-07-20T00:43:17;19.07;108.00
66312;HTU21D;53114;51.138;6.008;2023-07-20T00:45:44;18.99;108.49
66312;HTU21D;53114;51.138;6.008;2023-07-20T00:48:10;18.96;109.07
66312;HTU21D;53114;51.138;6.008;2023-07-20T00:50:37;18.91;109.52
66312;HTU21D;53114;51.138;6.008;2023-07-20T00:53:04;18.88;110.10
66312;HTU21D;53114;51.138;6.008;2023-07-20T00:55:34;18.85;110.67
66312;HTU21D;53114;51.138;6.008;2023-07-20T00:58:00;18.84;111.14
66312;HTU21D;53114;51.138;6.008;2023-07-20T01:00:27;18.81;111.49
66312;HTU21D;53114;51.138;6.008;2023-07-20T01:02:53;18.79;111.21
66312;HTU21D;53114;51.138;6.008;2023-07-20T01:05:20;18.74;111.34
66312;HTU21D;53114;51.138;6.008;2023-07-20T01:08:00;18.72;111.58
66312;HTU21D;53114;51.138;6.008;2023-07-20T01:10:46;18.62;112.18
66312;HTU21D;53114;51.138;6.008;2023-07-20T01:13:14;18.56;112.99
66312;HTU21D;53114;51.138;6.008;2023-07-20T01:15:41;18.50;113.91
66312;HTU21D;53114;51.138;6.008;2023-07-20T01:18:07;18.47;114.70
66312;HTU21D;53114;51.138;6.008;2023-07-20T01:20:35;18.40;115.32
66312;HTU21D;53114;51.138;6.008;2023-07-20T01:31:30;18.20;118.22
66312;HTU21D;53114;51.138;6.008;2023-07-20T01:34:00;18.20;118.63
66312;HTU21D;53114;51.138;6.008;2023-07-20T01:36:30;18.20;118.77
66312;HTU21D;53114;51.138;6.008;2023-07-20T01:38:59;18.15;118.99
66312;HTU21D;53114;51.138;6.008;2023-07-20T01:41:25;18.11;118.99
66312;HTU21D;53114;51.138;6.008;2023-07-20T01:43:51;18.06;118.99
66312;HTU21D;53114;51.138;6.008;2023-07-20T01:46:17;18.07;118.99
66312;HTU21D;53114;51.138;6.008;2023-07-20T01:48:43;18.09;118.99
66312;HTU21D;53114;51.138;6.008;2023-07-20T01:51:09;18.10;118.99
66312;HTU21D;53114;51.138;6.008;2023-07-20T01:53:35;18.11;118.99
66312;HTU21D;53114;51.138;6.008;2023-07-20T01:56:01;18.13;118.99
66312;HTU21D;53114;51.138;6.008;2023-07-20T01:58:28;18.14;118.99
66312;HTU21D;53114;51.138;6.008;2023-07-20T02:00:54;18.20;118.99
66312;HTU21D;53114;51.138;6.008;2023-07-20T02:03:20;18.19;118.99
66312;HTU21D;53114;51.138;6.008;2023-07-20T02:05:47;18.21;118.99
66312;HTU21D;53114;51.138;6.008;2023-07-20T02:08:13;18.20;118.99
66312;HTU21D;53114;51.138;6.008;2023-07-20T02:10:39;18.18;118.99
66312;HTU21D;53114;51.138;6.008;2023-07-20T02:13:05;18.17;118.99
66312;HTU21D;53114;51.138;6.008;2023-07-20T02:15:31;18.18;118.99
66312;HTU21D;53114;51.138;6.008;2023-07-20T02:17:57;18.17;118.99
66312;HTU21D;53114;51.138;6.008;2023-07-20T02:20:24;18.15;118.99
66312;HTU21D;53114;51.138;6.008;2023-07-20T02:22:49;18.13;118.99
66312;HTU21D;53114;51.138;6.008;2023-07-20T02:25:15;18.13;118.99
66312;HTU21D;53114;51.138;6.008;2023-07-20T02:27:41;18.11;118.99
66312;HTU21D;53114;51.138;6.008;2023-07-20T02:30:08;18.09;118.99
66312;HTU21D;53114;51.138;6.008;2023-07-20T02:32:35;18.05;118.99
66312;HTU21D;53114;51.138;6.008;2023-07-20T02:35:01;18.00;118.99
66312;HTU21D;53114;51.138;6.008;2023-07-20T02:37:26;17.97;118.99
66312;HTU21D;53114;51.138;6.008;2023-07-20T02:39:53;17.94;118.99
66312;HTU21D;53114;51.138;6.008;2023-07-20T02:42:18;17.95;118.99
66312;HTU21D;53114;51.138;6.008;2023-07-20T02:44:45;17.99;118.99
66312;HTU21D;53114;51.138;6.008;2023-07-20T02:47:11;18.04;118.99
66312;HTU21D;53114;51.138;6.008;2023-07-20T02:49:37;18.06;118.99
66312;HTU21D;53114;51.138;6.008;2023-07-20T02:52:03;18.12;118.99
66312;HTU21D;53114;51.138;6.008;2023-07-20T02:54:29;18.13;118.99
66312;HTU21D;53114;51.138;6.008;2023-07-20T02:56:56;18.18;118.99
66312;HTU21D;53114;51.138;6.008;2023-07-20T02:59:22;18.18;118.99
66312;HTU21D;53114;51.138;6.008;2023-07-20T03:01:48;18.17;118.99
66312;HTU21D;53114;51.138;6.008;2023-07-20T03:04:14;18.17;118.99
66312;HTU21D;53114;51.138;6.008;2023-07-20T03:06:40;18.17;118.99
66312;HTU21D;53114;51.138;6.008;2023-07-20T03:09:06;18.18;118.99
66312;HTU21D;53114;51.138;6.008;2023-07-20T03:11:33;18.22;118.99
66312;HTU21D;53114;51.138;6.008;2023-07-20T03:13:59;18.23;118.99
66312;HTU21D;53114;51.138;6.008;2023-07-20T03:16:25;18.25;118.99
66312;HTU21D;53114;51.138;6.008;2023-07-20T03:18:53;18.27;118.99
66312;HTU21D;53114;51.138;6.008;2023-07-20T03:21:19;18.32;118.99
66312;HTU21D;53114;51.138;6.008;2023-07-20T03:23:45;18.36;118.99
66312;HTU21D;53114;51.138;6.008;2023-07-20T03:26:11;18.37;118.99
66312;HTU21D;53114;51.138;6.008;2023-07-20T03:28:38;18.40;118.99
66312;HTU21D;53114;51.138;6.008;2023-07-20T03:31:05;18.41;118.99
66312;HTU21D;53114;51.138;6.008;2023-07-20T03:33:34;18.41;118.99
66312;HTU21D;53114;51.138;6.008;2023-07-20T03:36:01;18.44;118.99
66312;HTU21D;53114;51.138;6.008;2023-07-20T03:38:27;18.46;118.99
66312;HTU21D;53114;51.138;6.008;2023-07-20T03:40:55;18.44;118.99
66312;HTU21D;53114;51.138;6.008;2023-07-20T03:43:22;18.43;118.99
66312;HTU21D;53114;51.138;6.008;2023-07-20T03:45:49;18.44;118.99
66312;HTU21D;53114;51.138;6.008;2023-07-20T03:48:25;18.43;118.99
66312;HTU21D;53114;51.138;6.008;2023-07-20T03:50:53;18.39;118.99
66312;HTU21D;53114;51.138;6.008;2023-07-20T03:53:19;18.40;118.99
66312;HTU21D;53114;51.138;6.008;2023-07-20T03:55:50;18.41;118.99
66312;HTU21D;53114;51.138;6.008;2023-07-20T03:58:18;18.43;118.99
66312;HTU21D;53114;51.138;6.008;2023-07-20T04:00:51;18.43;118.99
66312;HTU21D;53114;51.138;6.008;2023-07-20T04:03:18;18.43;118.99
66312;HTU21D;53114;51.138;6.008;2023-07-20T04:05:45;18.40;118.99
66312;HTU21D;53114;51.138;6.008;2023-07-20T04:08:11;18.39;118.99
66312;HTU21D;53114;51.138;6.008;2023-07-20T04:10:38;18.41;118.99
66312;HTU21D;53114;51.138;6.008;2023-07-20T04:13:04;18.43;118.99
66312;HTU21D;53114;51.138;6.008;2023-07-20T04:15:30;18.47;118.99
66312;HTU21D;53114;51.138;6.008;2023-07-20T04:17:57;18.48;118.99
66312;HTU21D;53114;51.138;6.008;2023-07-20T04:20:23;18.48;118.99
66312;HTU21D;53114;51.138;6.008;2023-07-20T04:22:50;18.50;118.99
66312;HTU21D;53114;51.138;6.008;2023-07-20T04:25:17;18.50;118.99
66312;HTU21D;53114;51.138;6.008;2023-07-20T04:27:44;18.53;118.99
66312;HTU21D;53114;51.138;6.008;2023-07-20T04:30:11;18.55;118.99
66312;HTU21D;53114;51.138;6.008;2023-07-20T04:32:38;18.58;118.99
66312;HTU21D;53114;51.138;6.008;2023-07-20T04:35:09;18.64;118.99
66312;HTU21D;53114;51.138;6.008;2023-07-20T04:37:38;18.67;118.99
66312;HTU21D;53114;51.138;6.008;2023-07-20T04:40:15;18.72;118.99
66312;HTU21D;53114;51.138;6.008;2023-07-20T04:42:42;18.73;118.99
66312;HTU21D;53114;51.138;6.008;2023-07-20T04:45:08;18.73;118.99
66312;HTU21D;53114;51.138;6.008;2023-07-20T04:47:35;18.78;118.99
66312;HTU21D;53114;51.138;6.008;2023-07-20T04:50:02;18.81;118.99
66312;HTU21D;53114;51.138;6.008;2023-07-20T04:52:29;18.84;118.99
66312;HTU21D;53114;51.138;6.008;2023-07-20T04:54:56;18.85;118.99
66312;HTU21D;53114;51.138;6.008;2023-07-20T04:57:24;18.93;118.99
66312;HTU21D;53114;51.138;6.008;2023-07-20T04:59:49;19.01;118.57
66312;HTU21D;53114;51.138;6.008;2023-07-20T05:02:15;19.09;117.55
66312;HTU21D;53114;51.138;6.008;2023-07-20T05:04:41;19.16;117.00
66312;HTU21D;53114;51.138;6.008;2023-07-20T05:07:07;19.26;116.18
66312;HTU21D;53114;51.138;6.008;2023-07-20T05:09:34;19.31;115.05
66312;HTU21D;53114;51.138;6.008;2023-07-20T05:12:00;19.31;114.65
66312;HTU21D;53114;51.138;6.008;2023-07-20T05:14:26;19.35;114.58
66312;HTU21D;53114;51.138;6.008;2023-07-20T05:16:52;19.33;114.28
66312;HTU21D;53114;51.138;6.008;2023-07-20T05:19:18;19.25;114.81
66312;HTU21D;53114;51.138;6.008;2023-07-20T05:21:44;19.21;115.72
66312;HTU21D;53114;51.138;6.008;2023-07-20T05:24:10;19.24;115.91
66312;HTU21D;53114;51.138;6.008;2023-07-20T05:26:36;19.31;116.07
66312;HTU21D;53114;51.138;6.008;2023-07-20T05:29:02;19.40;116.38
66312;HTU21D;53114;51.138;6.008;2023-07-20T05:31:28;19.51;116.30
66312;HTU21D;53114;51.138;6.008;2023-07-20T05:33:56;19.61;115.34
66312;HTU21D;53114;51.138;6.008;2023-07-20T05:36:22;19.69;114.41
66312;HTU21D;53114;51.138;6.008;2023-07-20T05:38:48;19.72;113.64
66312;HTU21D;53114;51.138;6.008;2023-07-20T05:41:15;19.70;113.46
66312;HTU21D;53114;51.138;6.008;2023-07-20T05:43:41;19.68;113.42
66312;HTU21D;53114;51.138;6.008;2023-07-20T05:46:07;19.63;113.74
66312;HTU21D;53114;51.138;6.008;2023-07-20T05:48:34;19.59;114.51
66312;HTU21D;53114;51.138;6.008;2023-07-20T05:51:01;19.60;115.52
66312;HTU21D;53114;51.138;6.008;2023-07-20T05:53:27;19.60;115.60
66312;HTU21D;53114;51.138;6.008;2023-07-20T05:55:53;19.66;114.77
66312;HTU21D;53114;51.138;6.008;2023-07-20T05:58:20;19.75;113.39
66312;HTU21D;53114;51.138;6.008;2023-07-20T06:00:49;19.84;112.16
66312;HTU21D;53114;51.138;6.008;2023-07-20T06:03:16;19.87;110.91
66312;HTU21D;53114;51.138;6.008;2023-07-20T06:05:42;19.91;109.94
66312;HTU21D;53114;51.138;6.008;2023-07-20T06:08:08;19.95;108.56
66312;HTU21D;53114;51.138;6.008;2023-07-20T06:10:34;20.00;108.20
66312;HTU21D;53114;51.138;6.008;2023-07-20T06:13:00;20.06;106.27
66312;HTU21D;53114;51.138;6.008;2023-07-20T06:15:30;20.10;104.95
66312;HTU21D;53114;51.138;6.008;2023-07-20T06:17:56;20.05;104.55
66312;HTU21D;53114;51.138;6.008;2023-07-20T06:20:24;20.01;105.53
66312;HTU21D;53114;51.138;6.008;2023-07-20T06:22:50;19.97;105.69
66312;HTU21D;53114;51.138;6.008;2023-07-20T06:25:16;20.02;106.39
66312;HTU21D;53114;51.138;6.008;2023-07-20T06:27:43;20.15;105.56
66312;HTU21D;53114;51.138;6.008;2023-07-20T06:30:09;20.29;102.82
66312;HTU21D;53114;51.138;6.008;2023-07-20T06:32:36;20.42;100.69
66312;HTU21D;53114;51.138;6.008;2023-07-20T06:35:02;20.46;100.41
66312;HTU21D;53114;51.138;6.008;2023-07-20T06:37:28;20.43;100.84
66312;HTU21D;53114;51.138;6.008;2023-07-20T06:39:54;20.34;101.16
66312;HTU21D;53114;51.138;6.008;2023-07-20T06:42:20;20.21;101.90
66312;HTU21D;53114;51.138;6.008;2023-07-20T06:44:46;20.12;103.46
66312;HTU21D;53114;51.138;6.008;2023-07-20T06:47:12;20.09;104.13
66312;HTU21D;53114;51.138;6.008;2023-07-20T06:49:38;19.99;105.07
66312;HTU21D;53114;51.138;6.008;2023-07-20T06:52:04;19.90;106.01
66312;HTU21D;53114;51.138;6.008;2023-07-20T06:54:30;19.92;106.96
66312;HTU21D;53114;51.138;6.008;2023-07-20T06:56:56;19.99;105.48
66312;HTU21D;53114;51.138;6.008;2023-07-20T06:59:22;20.10;105.79
66312;HTU21D;53114;51.138;6.008;2023-07-20T07:01:50;20.34;105.17
66312;HTU21D;53114;51.138;6.008;2023-07-20T07:04:16;20.59;99.69
66312;HTU21D;53114;51.138;6.008;2023-07-20T07:06:41;20.66;96.81
66312;HTU21D;53114;51.138;6.008;2023-07-20T07:09:08;20.61;95.23
66312;HTU21D;53114;51.138;6.008;2023-07-20T07:11:34;20.59;94.77
66312;HTU21D;53114;51.138;6.008;2023-07-20T07:14:00;20.53;94.43
66312;HTU21D;53114;51.138;6.008;2023-07-20T07:16:26;20.45;94.77
66312;HTU21D;53114;51.138;6.008;2023-07-20T07:18:52;20.40;94.93
66312;HTU21D;53114;51.138;6.008;2023-07-20T07:21:18;20.34;94.98
66312;HTU21D;53114;51.138;6.008;2023-07-20T07:23:45;20.32;95.34
66312;HTU21D;53114;51.138;6.008;2023-07-20T07:26:11;20.40;94.93
66312;HTU21D;53114;51.138;6.008;2023-07-20T07:28:37;20.58;93.02
66312;HTU21D;53114;51.138;6.008;2023-07-20T07:31:07;20.83;90.63
66312;HTU21D;53114;51.138;6.008;2023-07-20T07:33:33;21.05;86.96
66312;HTU21D;53114;51.138;6.008;2023-07-20T07:36:00;21.19;84.07
66312;HTU21D;53114;51.138;6.008;2023-07-20T07:38:26;21.24;82.02
66312;HTU21D;53114;51.138;6.008;2023-07-20T07:40:51;21.21;80.97
66312;HTU21D;53114;51.138;6.008;2023-07-20T07:43:17;21.13;79.72
66312;HTU21D;53114;51.138;6.008;2023-07-20T07:45:43;20.99;79.37
66312;HTU21D;53114;51.138;6.008;2023-07-20T07:48:09;21.50;81.39
66312;HTU21D;53114;51.138;6.008;2023-07-20T07:50:38;22.28;69.55
66312;HTU21D;53114;51.138;6.008;2023-07-20T07:53:07;22.95;67.76
66312;HTU21D;53114;51.138;6.008;2023-07-20T07:55:35;25.44;56.50
66312;HTU21D;53114;51.138;6.008;2023-07-20T07:58:01;27.98;48.09
66312;HTU21D;53114;51.138;6.008;2023-07-20T08:00:27;30.28;41.81
66312;HTU21D;53114;51.138;6.008;2023-07-20T08:02:53;32.04;37.82
66312;HTU21D;53114;51.138;6.008;2023-07-20T08:05:19;33.28;34.95
66312;HTU21D;53114;51.138;6.008;2023-07-20T08:07:45;34.25;32.49
66312;HTU21D;53114;51.138;6.008;2023-07-20T08:10:11;33.38;32.71
66312;HTU21D;53114;51.138;6.008;2023-07-20T08:12:37;32.25;34.57
66312;HTU21D;53114;51.138;6.008;2023-07-20T08:15:03;30.75;36.47
66312;HTU21D;53114;51.138;6.008;2023-07-20T08:17:30;28.93;39.68
66312;HTU21D;53114;51.138;6.008;2023-07-20T08:19:56;27.32;43.17
66312;HTU21D;53114;51.138;6.008;2023-07-20T08:22:22;26.35;46.12
66312;HTU21D;53114;51.138;6.008;2023-07-20T08:24:48;26.70;46.88
66312;HTU21D;53114;51.138;6.008;2023-07-20T08:27:14;28.11;44.11
66312;HTU21D;53114;51.138;6.008;2023-07-20T08:29:40;29.52;40.79
66312;HTU21D;53114;51.138;6.008;2023-07-20T08:32:06;30.37;37.88
66312;HTU21D;53114;51.138;6.008;2023-07-20T08:34:32;30.22;37.30
66312;HTU21D;53114;51.138;6.008;2023-07-20T08:36:59;29.37;38.24
66312;HTU21D;53114;51.138;6.008;2023-07-20T08:39:25;30.08;38.15
66312;HTU21D;53114;51.138;6.008;2023-07-20T08:41:51;32.00;34.32
66312;HTU21D;53114;51.138;6.008;2023-07-20T08:44:20;33.71;31.39
66312;HTU21D;53114;51.138;6.008;2023-07-20T08:46:47;35.18;28.80
66312;HTU21D;53114;51.138;6.008;2023-07-20T08:49:17;36.36;26.55
66312;HTU21D;53114;51.138;6.008;2023-07-20T08:51:45;35.77;25.96
66312;HTU21D;53114;51.138;6.008;2023-07-20T08:54:13;33.52;29.35
66312;HTU21D;53114;51.138;6.008;2023-07-20T08:56:40;32.55;32.27
66312;HTU21D;53114;51.138;6.008;2023-07-20T08:59:08;32.96;31.67
66312;HTU21D;53114;51.138;6.008;2023-07-20T09:01:36;32.57;31.85
66312;HTU21D;53114;51.138;6.008;2023-07-20T09:04:04;32.81;32.00
66312;HTU21D;53114;51.138;6.008;2023-07-20T09:06:30;33.30;31.60
66312;HTU21D;53114;51.138;6.008;2023-07-20T09:08:56;33.96;30.51
66312;HTU21D;53114;51.138;6.008;2023-07-20T09:11:22;34.42;29.28
66312;HTU21D;53114;51.138;6.008;2023-07-20T09:14:02;34.35;28.49
66312;HTU21D;53114;51.138;6.008;2023-07-20T09:16:28;34.09;29.36
66312;HTU21D;53114;51.138;6.008;2023-07-20T09:18:57;34.24;28.95
66312;HTU21D;53114;51.138;6.008;2023-07-20T09:21:23;34.33;28.26
66312;HTU21D;53114;51.138;6.008;2023-07-20T09:23:56;33.97;27.99
66312;HTU21D;53114;51.138;6.008;2023-07-20T09:26:22;33.18;28.73
66312;HTU21D;53114;51.138;6.008;2023-07-20T09:28:52;32.97;29.93
66312;HTU21D;53114;51.138;6.008;2023-07-20T09:31:21;32.62;30.22
66312;HTU21D;53114;51.138;6.008;2023-07-20T09:33:48;31.84;31.60
66312;HTU21D;53114;51.138;6.008;2023-07-20T09:36:15;31.35;31.94
66312;HTU21D;53114;51.138;6.008;2023-07-20T09:38:42;30.33;33.17
66312;HTU21D;53114;51.138;6.008;2023-07-20T09:41:17;29.95;35.46
66312;HTU21D;53114;51.138;6.008;2023-07-20T09:43:45;30.51;34.86
66312;HTU21D;53114;51.138;6.008;2023-07-20T09:46:11;30.70;34.73
66312;HTU21D;53114;51.138;6.008;2023-07-20T09:48:38;31.54;33.63
66312;HTU21D;53114;51.138;6.008;2023-07-20T09:51:06;32.71;30.95
66312;HTU21D;53114;51.138;6.008;2023-07-20T09:53:33;33.99;28.81
66312;HTU21D;53114;51.138;6.008;2023-07-20T09:56:00;34.85;26.75
66312;HTU21D;53114;51.138;6.008;2023-07-20T09:58:26;34.89;25.75
66312;HTU21D;53114;51.138;6.008;2023-07-20T10:00:57;34.69;25.59
66312;HTU21D;53114;51.138;6.008;2023-07-20T10:03:28;34.69;26.11
66312;HTU21D;53114;51.138;6.008;2023-07-20T10:06:05;33.93;26.56
66312;HTU21D;53114;51.138;6.008;2023-07-20T10:08:32;33.57;27.87
66312;HTU21D;53114;51.138;6.008;2023-07-20T10:11:02;34.00;26.87
66312;HTU21D;53114;51.138;6.008;2023-07-20T10:13:29;33.08;27.32
66312;HTU21D;53114;51.138;6.008;2023-07-20T10:16:02;32.93;28.42
66312;HTU21D;53114;51.138;6.008;2023-07-20T10:18:41;32.83;27.59
66312;HTU21D;53114;51.138;6.008;2023-07-20T10:21:09;31.90;28.45
66312;HTU21D;53114;51.138;6.008;2023-07-20T10:23:36;30.67;30.83
66312;HTU21D;53114;51.138;6.008;2023-07-20T10:26:04;30.47;31.57
66312;HTU21D;53114;51.138;6.008;2023-07-20T10:28:31;30.87;30.83
66312;HTU21D;53114;51.138;6.008;2023-07-20T10:30:57;31.20;30.16
66312;HTU21D;53114;51.138;6.008;2023-07-20T10:33:24;31.25;30.15
66312;HTU21D;53114;51.138;6.008;2023-07-20T10:36:01;30.75;31.53
66312;HTU21D;53114;51.138;6.008;2023-07-20T10:43:47;29.27;34.22
66312;HTU21D;53114;51.138;6.008;2023-07-20T10:46:14;28.86;35.02
66312;HTU21D;53114;51.138;6.008;2023-07-20T10:49:01;28.76;35.04
66312;HTU21D;53114;51.138;6.008;2023-07-20T10:51:31;28.70;35.15
66312;HTU21D;53114;51.138;6.008;2023-07-20T10:54:52;28.84;34.85
66312;HTU21D;53114;51.138;6.008;2023-07-20T10:56:56;28.83;34.31
66312;HTU21D;53114;51.138;6.008;2023-07-20T11:01:57;28.60;34.15
66312;HTU21D;53114;51.138;6.008;2023-07-20T11:04:47;28.58;34.17
66312;HTU21D;53114;51.138;6.008;2023-07-20T11:07:37;28.46;34.13
66312;HTU21D;53114;51.138;6.008;2023-07-20T11:10:15;28.50;34.03
66312;HTU21D;53114;51.138;6.008;2023-07-20T11:13:20;28.57;34.04
66312;HTU21D;53114;51.138;6.008;2023-07-20T11:16:01;28.50;33.53
66312;HTU21D;53114;51.138;6.008;2023-07-20T11:18:29;28.28;34.14
66312;HTU21D;53114;51.138;6.008;2023-07-20T11:20:55;28.10;34.77
66312;HTU21D;53114;51.138;6.008;2023-07-20T11:23:21;28.13;35.27
66312;HTU21D;53114;51.138;6.008;2023-07-20T11:25:48;28.20;35.18
66312;HTU21D;53114;51.138;6.008;2023-07-20T11:28:15;28.29;35.05
66312;HTU21D;53114;51.138;6.008;2023-07-20T11:30:41;28.37;35.98
66312;HTU21D;53114;51.138;6.008;2023-07-20T11:33:10;28.34;35.24
66312;HTU21D;53114;51.138;6.008;2023-07-20T11:35:45;28.29;35.24
66312;HTU21D;53114;51.138;6.008;2023-07-20T11:38:13;28.25;35.50
66312;HTU21D;53114;51.138;6.008;2023-07-20T11:40:43;28.26;35.31
66312;HTU21D;53114;51.138;6.008;2023-07-20T11:43:11;28.26;34.73
66312;HTU21D;53114;51.138;6.008;2023-07-20T11:45:38;28.20;34.47
66312;HTU21D;53114;51.138;6.008;2023-07-20T11:48:04;28.17;34.69
66312;HTU21D;53114;51.138;6.008;2023-07-20T11:50:30;28.17;34.47
66312;HTU21D;53114;51.138;6.008;2023-07-20T11:52:57;28.17;33.97
66312;HTU21D;53114;51.138;6.008;2023-07-20T11:55:23;28.05;34.23
66312;HTU21D;53114;51.138;6.008;2023-07-20T11:58:05;27.72;34.70
66312;HTU21D;53114;51.138;6.008;2023-07-20T12:00:33;27.59;36.36
66312;HTU21D;53114;51.138;6.008;2023-07-20T12:03:00;27.69;37.95
66312;HTU21D;53114;51.138;6.008;2023-07-20T12:05:27;27.85;36.78
66312;HTU21D;53114;51.138;6.008;2023-07-20T12:07:54;27.97;35.82
66312;HTU21D;53114;51.138;6.008;2023-07-20T12:10:26;27.90;35.61
66312;HTU21D;53114;51.138;6.008;2023-07-20T12:12:52;27.87;35.42
66312;HTU21D;53114;51.138;6.008;2023-07-20T12:15:25;27.94;34.92
66312;HTU21D;53114;51.138;6.008;2023-07-20T12:17:57;27.84;34.28
66312;HTU21D;53114;51.138;6.008;2023-07-20T12:22:52;27.58;35.31
66312;HTU21D;53114;51.138;6.008;2023-07-20T12:25:17;27.73;34.70
66312;HTU21D;53114;51.138;6.008;2023-07-20T12:27:45;27.93;34.09
66312;HTU21D;53114;51.138;6.008;2023-07-20T12:30:12;27.88;34.12
66312;HTU21D;53114;51.138;6.008;2023-07-20T12:32:39;27.64;34.54
66312;HTU21D;53114;51.138;6.008;2023-07-20T12:35:05;27.53;34.92
66312;HTU21D;53114;51.138;6.008;2023-07-20T12:37:32;27.38;35.02
66312;HTU21D;53114;51.138;6.008;2023-07-20T12:39:58;27.24;35.05
66312;HTU21D;53114;51.138;6.008;2023-07-20T12:42:24;27.14;34.72
66312;HTU21D;53114;51.138;6.008;2023-07-20T12:44:50;27.04;34.73
66312;HTU21D;53114;51.138;6.008;2023-07-20T12:47:19;26.94;35.34
66312;HTU21D;53114;51.138;6.008;2023-07-20T12:49:45;26.81;35.96
66312;HTU21D;53114;51.138;6.008;2023-07-20T12:52:12;26.75;36.05
66312;HTU21D;53114;51.138;6.008;2023-07-20T12:54:38;26.73;36.21
66312;HTU21D;53114;51.138;6.008;2023-07-20T12:57:04;26.70;36.81
66312;HTU21D;53114;51.138;6.008;2023-07-20T12:59:30;26.69;37.40
66312;HTU21D;53114;51.138;6.008;2023-07-20T13:01:56;26.77;37.62
66312;HTU21D;53114;51.138;6.008;2023-07-20T13:04:22;26.80;37.31
66312;HTU21D;53114;51.138;6.008;2023-07-20T13:06:48;26.78;36.79
66312;HTU21D;53114;51.138;6.008;2023-07-20T13:09:14;26.79;36.78
66312;HTU21D;53114;51.138;6.008;2023-07-20T13:11:40;26.78;36.40
66312;HTU21D;53114;51.138;6.008;2023-07-20T13:14:06;26.71;36.65
66312;HTU21D;53114;51.138;6.008;2023-07-20T13:16:32;26.56;37.33
66312;HTU21D;53114;51.138;6.008;2023-07-20T13:18:57;26.56;37.03
66312;HTU21D;53114;51.138;6.008;2023-07-20T13:21:23;26.66;37.02
66312;HTU21D;53114;51.138;6.008;2023-07-20T13:23:50;26.83;36.22
66312;HTU21D;53114;51.138;6.008;2023-07-20T13:26:16;26.93;36.42
66312;HTU21D;53114;51.138;6.008;2023-07-20T13:28:42;26.77;35.89
66312;HTU21D;53114;51.138;6.008;2023-07-20T13:31:08;26.62;36.23
66312;HTU21D;53114;51.138;6.008;2023-07-20T13:33:36;26.60;36.38
66312;HTU21D;53114;51.138;6.008;2023-07-20T13:36:02;26.61;36.13
66312;HTU21D;53114;51.138;6.008;2023-07-20T13:38:31;26.61;36.22
66312;HTU21D;53114;51.138;6.008;2023-07-20T13:40:57;26.58;36.18
66312;HTU21D;53114;51.138;6.008;2023-07-20T13:43:23;26.55;35.89
66312;HTU21D;53114;51.138;6.008;2023-07-20T13:45:49;26.41;34.97
66312;HTU21D;53114;51.138;6.008;2023-07-20T13:48:15;26.36;35.25
66312;HTU21D;53114;51.138;6.008;2023-07-20T13:50:41;26.27;35.95
66312;HTU21D;53114;51.138;6.008;2023-07-20T13:53:07;26.18;36.41
66312;HTU21D;53114;51.138;6.008;2023-07-20T13:55:33;26.11;36.66
66312;HTU21D;53114;51.138;6.008;2023-07-20T13:58:02;26.07;37.39
66312;HTU21D;53114;51.138;6.008;2023-07-20T14:00:28;26.08;37.64
66312;HTU21D;53114;51.138;6.008;2023-07-20T14:03:01;26.12;37.62
66312;HTU21D;53114;51.138;6.008;2023-07-20T14:05:27;26.23;37.53
66312;HTU21D;53114;51.138;6.008;2023-07-20T14:07:53;26.26;37.76
66312;HTU21D;53114;51.138;6.008;2023-07-20T14:10:20;26.26;37.77
66312;HTU21D;53114;51.138;6.008;2023-07-20T14:12:46;26.32;38.32
66312;HTU21D;53114;51.138;6.008;2023-07-20T14:15:11;26.38;38.00
66312;HTU21D;53114;51.138;6.008;2023-07-20T14:17:37;26.40;37.91
66312;HTU21D;53114;51.138;6.008;2023-07-20T14:20:04;26.47;37.45
66312;HTU21D;53114;51.138;6.008;2023-07-20T14:22:33;26.56;37.55
66312;HTU21D;53114;51.138;6.008;2023-07-20T14:24:59;26.62;37.21
66312;HTU21D;53114;51.138;6.008;2023-07-20T14:27:25;26.54;37.00
66312;HTU21D;53114;51.138;6.008;2023-07-20T14:29:51;26.53;37.24
66312;HTU21D;53114;51.138;6.008;2023-07-20T14:32:17;26.55;37.28
66312;HTU21D;53114;51.138;6.008;2023-07-20T14:34:43;26.58;37.38
66312;HTU21D;53114;51.138;6.008;2023-07-20T14:37:09;26.73;37.21
66312;HTU21D;53114;51.138;6.008;2023-07-20T14:39:35;26.83;36.69
66312;HTU21D;53114;51.138;6.008;2023-07-20T14:42:01;26.80;37.04
66312;HTU21D;53114;51.138;6.008;2023-07-20T14:44:29;26.81;37.11
66312;HTU21D;53114;51.138;6.008;2023-07-20T14:46:55;26.87;37.31
66312;HTU21D;53114;51.138;6.008;2023-07-20T14:49:21;27.02;37.44
66312;HTU21D;53114;51.138;6.008;2023-07-20T14:51:47;27.13;37.55
66312;HTU21D;53114;51.138;6.008;2023-07-20T14:54:13;27.12;37.41
66312;HTU21D;53114;51.138;6.008;2023-07-20T14:56:49;27.08;36.94
66312;HTU21D;53114;51.138;6.008;2023-07-20T14:59:16;27.11;36.59
66312;HTU21D;53114;51.138;6.008;2023-07-20T15:01:43;27.19;36.25
66312;HTU21D;53114;51.138;6.008;2023-07-20T15:04:15;27.16;36.11
66312;HTU21D;53114;51.138;6.008;2023-07-20T15:06:41;27.09;36.67
66312;HTU21D;53114;51.138;6.008;2023-07-20T15:09:07;27.06;36.98
66312;HTU21D;53114;51.138;6.008;2023-07-20T15:11:34;26.91;36.99
66312;HTU21D;53114;51.138;6.008;2023-07-20T15:14:00;26.73;36.98
66312;HTU21D;53114;51.138;6.008;2023-07-20T15:16:26;26.58;37.45
66312;HTU21D;53114;51.138;6.008;2023-07-20T15:18:52;26.33;37.43
66312;HTU21D;53114;51.138;6.008;2023-07-20T15:21:18;26.16;37.56
66312;HTU21D;53114;51.138;6.008;2023-07-20T15:23:44;26.16;38.57
66312;HTU21D;53114;51.138;6.008;2023-07-20T15:26:11;26.39;38.10
66312;HTU21D;53114;51.138;6.008;2023-07-20T15:28:37;26.41;37.85
66312;HTU21D;53114;51.138;6.008;2023-07-20T15:31:05;26.33;38.04